Time;durP1;ratioP1;P1;durP2;ratioP2;P2;SDS_P1;SDS_P2;PMS_P1;PMS_P2;Temp;Humidity;BMP_temperature;BMP_pressure;BME280_temperature;BME280_humidity;BME280_pressure;Samples;Min_cycle;Max_cycle;Signal;HPM_P1;HPM_P2
2023/03/07 00:00:33;;;;;;;8.50;4.43;;;;;;;;;;5003276;28;20677;-78
2023/03/07 00:02:59;;;;;;;8.30;4.27;;;;;;;;;;5010076;28;20183;-77
2023/03/07 00:05:24;;;;;;;6.37;3.90;;;;;;;;;;4995931;28;20230;-78
2023/03/07 00:07:49;;;;;;;7.07;3.87;;;;;;;;;;5006907;28;20183;-78
2023/03/07 00:10:15;;;;;;;8.77;3.70;;;;;;;;;;5001354;28;20587;-78
2023/03/07 00:12:40;;;;;;;7.27;3.50;;;;;;;;;;4992213;28;20633;-77
2023/03/07 00:15:06;;;;;;;5.93;3.43;;;;;;;;;;4995484;28;20251;-78
2023/03/07 00:17:34;;;;;;;5.70;3.60;;;;;;;;;;5003290;28;20178;-78
2023/03/07 00:19:59;;;;;;;7.00;4.70;;;;;;;;;;5003706;28;20202;-80
2023/03/07 00:22:24;;;;;;;5.67;3.70;;;;;;;;;;5008621;28;20198;-77
2023/03/07 00:24:49;;;;;;;7.00;3.87;;;;;;;;;;4996083;28;20590;-78
2023/03/07 00:27:15;;;;;;;7.60;3.53;;;;;;;;;;4999048;28;20194;-78
2023/03/07 00:29:40;;;;;;;8.27;3.40;;;;;;;;;;4989322;28;20650;-78
2023/03/07 00:32:05;;;;;;;9.37;4.43;;;;;;;;;;4984782;28;20215;-77
2023/03/07 00:34:31;;;;;;;6.37;3.33;;;;;;;;;;4993736;28;20301;-78
2023/03/07 00:36:56;;;;;;;7.93;3.43;;;;;;;;;;4997674;28;20184;-77
2023/03/07 00:39:21;;;;;;;7.17;3.57;;;;;;;;;;4993751;28;20191;-77
2023/03/07 00:41:46;;;;;;;8.27;3.43;;;;;;;;;;4990628;28;20168;-77
2023/03/07 00:44:11;;;;;;;9.77;3.73;;;;;;;;;;4994588;28;20204;-77
2023/03/07 00:46:37;;;;;;;6.13;3.60;;;;;;;;;;4992351;28;20182;-77
2023/03/07 00:49:02;;;;;;;9.40;4.20;;;;;;;;;;4993278;28;20179;-77
2023/03/07 00:51:27;;;;;;;10.60;4.17;;;;;;;;;;4985229;28;20184;-77
2023/03/07 00:53:53;;;;;;;6.90;3.77;;;;;;;;;;4971035;28;20290;-78
2023/03/07 00:56:19;;;;;;;9.40;4.10;;;;;;;;;;4975373;28;20278;-77
2023/03/07 00:58:45;;;;;;;10.37;4.37;;;;;;;;;;4994224;28;20214;-77
2023/03/07 01:01:11;;;;;;;9.30;4.30;;;;;;;;;;4962462;28;20223;-77
2023/03/07 01:03:36;;;;;;;10.90;4.80;;;;;;;;;;4975277;28;20234;-77
2023/03/07 01:06:05;;;;;;;9.30;4.30;;;;;;;;;;5001990;28;20171;-77
2023/03/07 01:08:31;;;;;;;7.70;4.43;;;;;;;;;;4997742;28;20192;-76
2023/03/07 01:11:00;;;;;;;10.27;4.10;;;;;;;;;;4995842;28;20234;-76
2023/03/07 01:13:26;;;;;;;10.40;5.27;;;;;;;;;;4991913;28;20262;-76
2023/03/07 01:15:51;;;;;;;7.70;4.53;;;;;;;;;;4991959;28;20693;-76
2023/03/07 01:18:16;;;;;;;13.47;4.87;;;;;;;;;;4985648;28;20214;-76
2023/03/07 01:20:41;;;;;;;6.67;5.03;;;;;;;;;;4995580;28;20179;-76
2023/03/07 01:23:07;;;;;;;11.20;5.07;;;;;;;;;;5005354;28;20274;-76
2023/03/07 01:25:36;;;;;;;11.47;5.33;;;;;;;;;;4995117;28;20211;-76
2023/03/07 01:28:02;;;;;;;7.43;4.80;;;;;;;;;;5001056;28;20277;-78
2023/03/07 01:30:28;;;;;;;6.60;4.83;;;;;;;;;;4995282;28;20211;-76
2023/03/07 01:32:54;;;;;;;13.10;5.40;;;;;;;;;;4996516;28;20226;-76
2023/03/07 01:35:20;;;;;;;10.93;4.77;;;;;;;;;;4998838;28;20696;-75
2023/03/07 01:37:46;;;;;;;7.30;4.90;;;;;;;;;;4986582;28;20210;-79
2023/03/07 01:40:12;;;;;;;11.40;5.07;;;;;;;;;;5002633;28;20251;-76
2023/03/07 01:42:37;;;;;;;8.53;3.67;;;;;;;;;;5001058;28;20218;-76
2023/03/07 01:45:05;;;;;;;6.80;3.47;;;;;;;;;;4997187;28;20199;-77
2023/03/07 01:47:31;;;;;;;9.17;3.63;;;;;;;;;;5005103;28;20171;-78
2023/03/07 01:49:58;;;;;;;6.27;3.77;;;;;;;;;;5006165;28;20198;-78
2023/03/07 01:52:26;;;;;;;4.90;3.20;;;;;;;;;;4997380;28;20175;-77
2023/03/07 01:54:54;;;;;;;9.73;3.40;;;;;;;;;;4998992;28;20256;-78
2023/03/07 01:57:21;;;;;;;7.03;3.47;;;;;;;;;;5014136;28;20183;-78
2023/03/07 01:59:48;;;;;;;4.80;2.43;;;;;;;;;;5006196;28;20202;-78
2023/03/07 02:02:18;;;;;;;7.73;2.67;;;;;;;;;;5008613;28;20580;-78
2023/03/07 02:04:43;;;;;;;4.37;2.77;;;;;;;;;;5004444;28;20279;-78
2023/03/07 02:07:09;;;;;;;3.57;2.30;;;;;;;;;;4998992;28;20195;-78
2023/03/07 02:09:34;;;;;;;7.00;2.40;;;;;;;;;;5002385;28;20206;-78
2023/03/07 02:12:00;;;;;;;6.53;2.67;;;;;;;;;;5017240;28;20189;-77
2023/03/07 02:14:25;;;;;;;8.40;2.50;;;;;;;;;;4997827;28;20210;-78
2023/03/07 02:16:51;;;;;;;6.70;2.27;;;;;;;;;;5004049;28;20184;-77
2023/03/07 02:19:45;;;;;;;6.20;2.00;;;;;;;;;;4989232;28;20207;-77
2023/03/07 02:22:16;;;;;;;7.83;3.00;;;;;;;;;;4979315;28;20187;-76
2023/03/07 02:24:41;;;;;;;7.97;2.30;;;;;;;;;;5002435;28;20558;-76
2023/03/07 02:27:06;;;;;;;7.20;2.53;;;;;;;;;;4999835;28;20172;-76
2023/03/07 02:29:31;;;;;;;3.87;2.60;;;;;;;;;;5001479;28;20222;-77
2023/03/07 02:31:57;;;;;;;5.37;3.30;;;;;;;;;;4999762;28;20278;-76
2023/03/07 02:34:23;;;;;;;9.53;2.17;;;;;;;;;;4993374;28;20212;-77
2023/03/07 02:36:53;;;;;;;4.50;2.00;;;;;;;;;;4994199;28;20191;-77
2023/03/07 02:39:20;;;;;;;9.10;2.33;;;;;;;;;;5006076;28;20701;-77
2023/03/07 02:41:45;;;;;;;5.70;2.13;;;;;;;;;;5001906;28;20207;-77
2023/03/07 02:44:11;;;;;;;5.53;2.50;;;;;;;;;;5003857;28;20195;-77
2023/03/07 02:46:36;;;;;;;7.70;2.17;;;;;;;;;;5007655;28;20338;-77
2023/03/07 02:49:02;;;;;;;14.70;3.47;;;;;;;;;;4998418;28;20186;-77
2023/03/07 02:51:27;;;;;;;8.20;2.30;;;;;;;;;;5010518;28;20246;-76
2023/03/07 02:53:53;;;;;;;3.77;1.87;;;;;;;;;;4995567;28;20226;-77
2023/03/07 02:56:18;;;;;;;8.57;2.57;;;;;;;;;;4996165;28;20203;-77
2023/03/07 02:58:43;;;;;;;6.20;2.33;;;;;;;;;;5001977;28;20249;-76
2023/03/07 03:01:08;;;;;;;5.37;2.43;;;;;;;;;;4996290;28;20172;-77
2023/03/07 03:03:33;;;;;;;8.97;3.53;;;;;;;;;;4996084;28;20176;-77
2023/03/07 03:05:59;;;;;;;11.90;3.13;;;;;;;;;;5002848;28;20870;-77
2023/03/07 03:08:24;;;;;;;6.17;2.93;;;;;;;;;;5002566;28;20223;-77
2023/03/07 03:10:53;;;;;;;8.67;2.90;;;;;;;;;;4999107;28;20179;-77
2023/03/07 03:13:19;;;;;;;10.07;4.43;;;;;;;;;;4999434;28;20172;-77
2023/03/07 03:15:44;;;;;;;5.07;2.90;;;;;;;;;;5005012;28;20277;-77
2023/03/07 03:18:10;;;;;;;7.23;2.50;;;;;;;;;;4993964;28;20792;-78
2023/03/07 03:20:37;;;;;;;7.80;3.40;;;;;;;;;;4991407;28;20172;-77
2023/03/07 03:23:03;;;;;;;8.60;2.90;;;;;;;;;;5000042;28;20179;-78
2023/03/07 03:25:28;;;;;;;9.33;2.80;;;;;;;;;;5001470;28;20720;-77
2023/03/07 03:27:53;;;;;;;8.57;2.43;;;;;;;;;;4997972;28;20650;-77
2023/03/07 03:30:19;;;;;;;10.50;3.47;;;;;;;;;;5001710;28;20218;-77
2023/03/07 03:32:44;;;;;;;6.77;3.13;;;;;;;;;;4994407;28;20270;-76
2023/03/07 03:35:10;;;;;;;9.30;2.73;;;;;;;;;;5003969;28;20225;-77
2023/03/07 03:37:35;;;;;;;7.67;3.17;;;;;;;;;;4996440;28;20555;-77
2023/03/07 03:40:00;;;;;;;7.07;3.03;;;;;;;;;;5004588;28;20206;-77
2023/03/07 03:42:25;;;;;;;6.57;2.87;;;;;;;;;;4998829;28;20175;-77
2023/03/07 03:44:51;;;;;;;7.93;2.87;;;;;;;;;;5002570;28;20196;-77
2023/03/07 03:47:16;;;;;;;6.60;2.73;;;;;;;;;;4999406;28;20176;-77
2023/03/07 03:49:41;;;;;;;7.33;2.43;;;;;;;;;;5008318;28;20178;-77
2023/03/07 03:52:06;;;;;;;4.27;2.37;;;;;;;;;;5004590;28;20186;-77
2023/03/07 03:54:32;;;;;;;10.87;3.03;;;;;;;;;;5002569;28;20203;-77
2023/03/07 03:56:57;;;;;;;11.77;2.83;;;;;;;;;;5002490;28;20218;-76
2023/03/07 03:59:22;;;;;;;5.90;2.60;;;;;;;;;;5001586;28;20298;-77
2023/03/07 04:01:47;;;;;;;6.43;2.63;;;;;;;;;;4999053;28;20371;-78
2023/03/07 04:04:12;;;;;;;8.37;2.70;;;;;;;;;;4996984;28;20215;-77
2023/03/07 04:06:38;;;;;;;10.00;3.17;;;;;;;;;;4995836;28;20230;-77
2023/03/07 04:09:04;;;;;;;7.77;2.60;;;;;;;;;;5001911;28;20186;-77
2023/03/07 04:11:29;;;;;;;8.07;3.57;;;;;;;;;;4999588;28;20218;-77
2023/03/07 04:13:55;;;;;;;8.27;3.43;;;;;;;;;;4999248;28;20207;-77
2023/03/07 04:16:23;;;;;;;7.43;3.50;;;;;;;;;;4999835;28;20186;-77
2023/03/07 04:18:49;;;;;;;7.23;2.80;;;;;;;;;;4999441;28;20215;-77
2023/03/07 04:21:15;;;;;;;7.80;3.70;;;;;;;;;;4988030;28;20188;-77
2023/03/07 04:23:40;;;;;;;11.93;3.60;;;;;;;;;;5001424;28;20199;-77
2023/03/07 04:26:06;;;;;;;10.77;3.73;;;;;;;;;;4997452;28;20175;-77
2023/03/07 04:28:45;;;;;;;10.43;4.10;;;;;;;;;;4998799;28;20541;-77
2023/03/07 04:31:15;;;;;;;7.40;3.10;;;;;;;;;;4994959;28;20559;-77
2023/03/07 04:33:40;;;;;;;7.60;3.80;;;;;;;;;;5000130;28;20706;-78
2023/03/07 04:36:06;;;;;;;4.03;2.97;;;;;;;;;;5000171;28;20183;-77
2023/03/07 04:38:31;;;;;;;7.97;3.50;;;;;;;;;;5000962;28;20195;-77
2023/03/07 04:40:56;;;;;;;6.33;2.90;;;;;;;;;;5005434;28;20172;-77
2023/03/07 04:43:22;;;;;;;5.27;2.77;;;;;;;;;;5004972;28;20178;-77
2023/03/07 04:45:47;;;;;;;8.43;3.00;;;;;;;;;;5002996;28;20654;-77
2023/03/07 04:48:12;;;;;;;6.17;2.80;;;;;;;;;;4995398;28;20164;-77
2023/03/07 04:50:37;;;;;;;5.93;2.50;;;;;;;;;;4998225;28;20454;-77
2023/03/07 04:53:02;;;;;;;6.53;2.47;;;;;;;;;;5008166;28;20254;-78
2023/03/07 04:55:28;;;;;;;6.17;2.47;;;;;;;;;;5004214;28;20214;-77
2023/03/07 04:57:53;;;;;;;7.17;2.50;;;;;;;;;;4997415;28;20449;-77
2023/03/07 05:00:18;;;;;;;5.87;1.83;;;;;;;;;;5006451;28;20202;-77
2023/03/07 05:02:45;;;;;;;4.83;2.40;;;;;;;;;;5006163;28;20190;-77
2023/03/07 05:05:11;;;;;;;7.97;1.97;;;;;;;;;;5002310;28;20195;-78
2023/03/07 05:07:36;;;;;;;4.90;1.90;;;;;;;;;;4994569;28;20179;-77
2023/03/07 05:10:01;;;;;;;2.90;1.20;;;;;;;;;;5000068;28;20178;-77
2023/03/07 05:12:26;;;;;;;5.57;1.40;;;;;;;;;;4995795;28;20230;-78
2023/03/07 05:14:51;;;;;;;6.83;1.20;;;;;;;;;;4995561;28;20200;-78
2023/03/07 05:17:18;;;;;;;3.17;0.90;;;;;;;;;;4998106;28;20603;-78
2023/03/07 05:19:43;;;;;;;4.53;0.83;;;;;;;;;;4993330;28;20211;-78
2023/03/07 05:22:08;;;;;;;7.23;1.63;;;;;;;;;;5001638;28;20175;-78
2023/03/07 05:24:33;;;;;;;2.43;0.77;;;;;;;;;;5000931;28;20218;-77
2023/03/07 05:26:59;;;;;;;3.80;1.13;;;;;;;;;;5001679;28;20187;-79
2023/03/07 05:29:24;;;;;;;2.53;0.90;;;;;;;;;;4991514;28;20188;-78
2023/03/07 05:31:49;;;;;;;3.90;0.83;;;;;;;;;;5003675;28;20203;-78
2023/03/07 05:34:14;;;;;;;8.27;1.00;;;;;;;;;;5009882;22;20203;-70
2023/03/07 05:36:40;;;;;;;3.03;1.00;;;;;;;;;;4991362;28;20272;-69
2023/03/07 05:39:05;;;;;;;0.90;0.50;;;;;;;;;;4991352;28;20203;-69
2023/03/07 05:41:30;;;;;;;1.53;0.60;;;;;;;;;;4991325;28;20184;-70
2023/03/07 05:43:57;;;;;;;2.67;0.70;;;;;;;;;;4990807;28;20179;-70
2023/03/07 05:46:22;;;;;;;4.23;1.57;;;;;;;;;;4988966;28;20183;-69
2023/03/07 05:48:47;;;;;;;1.63;0.80;;;;;;;;;;4990620;28;20187;-69
2023/03/07 05:51:12;;;;;;;2.33;0.50;;;;;;;;;;4983767;28;20542;-70
2023/03/07 05:53:38;;;;;;;1.13;0.30;;;;;;;;;;4989266;28;20183;-70
2023/03/07 05:56:03;;;;;;;4.17;0.87;;;;;;;;;;4990637;28;20283;-70
2023/03/07 05:58:28;;;;;;;2.87;0.70;;;;;;;;;;4991589;28;20628;-70
2023/03/07 06:00:53;;;;;;;2.97;0.50;;;;;;;;;;4987620;28;20551;-70
2023/03/07 06:03:19;;;;;;;3.13;0.70;;;;;;;;;;4991370;28;20226;-70
2023/03/07 06:05:44;;;;;;;1.17;0.60;;;;;;;;;;4989608;28;20255;-70
2023/03/07 06:08:09;;;;;;;1.47;0.60;;;;;;;;;;4999161;28;20609;-70
2023/03/07 06:10:36;;;;;;;3.83;0.80;;;;;;;;;;4994291;28;20218;-70
2023/03/07 06:13:01;;;;;;;2.60;1.10;;;;;;;;;;4981106;28;20234;-69
2023/03/07 06:15:26;;;;;;;3.17;0.90;;;;;;;;;;4990829;28;20227;-70
2023/03/07 06:17:51;;;;;;;2.93;0.73;;;;;;;;;;4990381;28;20172;-70
2023/03/07 06:20:19;;;;;;;0.83;0.70;;;;;;;;;;4982484;28;20571;-70
2023/03/07 06:22:44;;;;;;;1.50;0.70;;;;;;;;;;4983843;28;20665;-70
2023/03/07 06:25:10;;;;;;;5.90;1.20;;;;;;;;;;4980193;28;20207;-70
2023/03/07 06:27:35;;;;;;;4.73;0.73;;;;;;;;;;4991139;28;20193;-70
2023/03/07 06:30:01;;;;;;;2.87;0.60;;;;;;;;;;4984813;28;20195;-70
2023/03/07 06:32:26;;;;;;;4.13;0.87;;;;;;;;;;4990316;28;20637;-70
2023/03/07 06:34:51;;;;;;;6.03;0.90;;;;;;;;;;4982142;28;20222;-70
2023/03/07 06:37:17;;;;;;;2.67;1.00;;;;;;;;;;4991149;28;20188;-70
2023/03/07 06:39:42;;;;;;;2.63;1.37;;;;;;;;;;4990973;28;20207;-70
2023/03/07 06:42:07;;;;;;;2.03;0.97;;;;;;;;;;4991850;28;20642;-70
2023/03/07 06:44:32;;;;;;;5.60;1.00;;;;;;;;;;4989882;28;20199;-70
2023/03/07 06:46:58;;;;;;;2.40;1.30;;;;;;;;;;4990531;28;20223;-71
2023/03/07 06:49:23;;;;;;;3.60;1.23;;;;;;;;;;4989164;28;20183;-70
2023/03/07 06:51:48;;;;;;;3.23;1.03;;;;;;;;;;4984538;28;20199;-70
2023/03/07 06:54:13;;;;;;;3.33;1.23;;;;;;;;;;4994483;28;20195;-70
2023/03/07 06:56:38;;;;;;;1.60;0.93;;;;;;;;;;4994884;28;20175;-70
2023/03/07 06:59:04;;;;;;;0.80;0.80;;;;;;;;;;4995432;28;20218;-70
2023/03/07 07:01:29;;;;;;;2.97;0.80;;;;;;;;;;4983396;28;20531;-70
2023/03/07 07:03:55;;;;;;;3.17;0.90;;;;;;;;;;4986501;28;20668;-70
2023/03/07 07:06:20;;;;;;;2.47;1.00;;;;;;;;;;4991629;28;20645;-70
2023/03/07 07:08:45;;;;;;;3.13;1.00;;;;;;;;;;4995210;28;20226;-70
2023/03/07 07:11:10;;;;;;;1.87;0.90;;;;;;;;;;4997205;28;20194;-70
2023/03/07 07:13:35;;;;;;;2.77;0.80;;;;;;;;;;4994237;28;20178;-70
2023/03/07 07:16:05;;;;;;;3.30;1.10;;;;;;;;;;4994074;28;20200;-70
2023/03/07 07:18:31;;;;;;;2.77;1.20;;;;;;;;;;4990379;28;20207;-70
2023/03/07 07:20:56;;;;;;;1.10;0.70;;;;;;;;;;4992944;28;20179;-70
2023/03/07 07:23:21;;;;;;;3.27;1.07;;;;;;;;;;4987855;28;20216;-70
2023/03/07 07:25:46;;;;;;;3.53;1.20;;;;;;;;;;4987329;28;20266;-70
2023/03/07 07:28:12;;;;;;;3.03;1.30;;;;;;;;;;4988506;28;20188;-70
2023/03/07 07:30:37;;;;;;;2.00;1.07;;;;;;;;;;4989013;28;20180;-70
2023/03/07 07:33:02;;;;;;;5.30;1.53;;;;;;;;;;4984363;28;20202;-70
2023/03/07 07:35:27;;;;;;;3.53;1.33;;;;;;;;;;4988106;28;20755;-70
2023/03/07 07:37:53;;;;;;;1.73;1.20;;;;;;;;;;4993208;28;20190;-70
2023/03/07 07:40:18;;;;;;;3.87;1.40;;;;;;;;;;4992959;28;20575;-70
2023/03/07 07:42:43;;;;;;;2.37;1.37;;;;;;;;;;4990672;28;20199;-70
2023/03/07 07:45:09;;;;;;;3.97;1.50;;;;;;;;;;4988689;28;20196;-70
2023/03/07 07:47:34;;;;;;;4.17;1.50;;;;;;;;;;4985918;28;20262;-70
2023/03/07 07:49:59;;;;;;;2.60;1.23;;;;;;;;;;4992261;28;20179;-70
2023/03/07 07:52:24;;;;;;;2.13;1.30;;;;;;;;;;4993066;28;20250;-70
2023/03/07 07:54:50;;;;;;;4.57;1.33;;;;;;;;;;4984209;28;20224;-70
2023/03/07 07:57:15;;;;;;;4.80;1.70;;;;;;;;;;4986000;28;20172;-72
2023/03/07 07:59:40;;;;;;;3.67;1.07;;;;;;;;;;4988123;28;20207;-71
2023/03/07 08:02:06;;;;;;;3.20;1.10;;;;;;;;;;4982384;28;20263;-71
2023/03/07 08:04:31;;;;;;;3.97;1.20;;;;;;;;;;4991052;28;20203;-71
2023/03/07 08:06:56;;;;;;;1.93;1.23;;;;;;;;;;4993405;28;20183;-70
2023/03/07 08:09:21;;;;;;;1.83;1.37;;;;;;;;;;4991200;28;20231;-71
2023/03/07 08:11:47;;;;;;;2.40;1.40;;;;;;;;;;4991796;28;20222;-70
2023/03/07 08:14:12;;;;;;;1.27;0.93;;;;;;;;;;4992157;28;20287;-71
2023/03/07 08:16:37;;;;;;;2.27;1.00;;;;;;;;;;4993281;28;20184;-71
2023/03/07 08:19:03;;;;;;;5.50;1.80;;;;;;;;;;4993014;28;20199;-71
2023/03/07 08:21:29;;;;;;;2.23;1.20;;;;;;;;;;4993489;28;20194;-71
2023/03/07 08:23:54;;;;;;;1.83;1.70;;;;;;;;;;4993312;28;20176;-71
2023/03/07 08:26:20;;;;;;;3.50;2.50;;;;;;;;;;4993467;28;20180;-71
2023/03/07 08:28:45;;;;;;;4.20;1.97;;;;;;;;;;4993111;28;20175;-71
2023/03/07 08:31:14;;;;;;;4.73;1.53;;;;;;;;;;4992850;28;20556;-71
2023/03/07 08:33:40;;;;;;;5.40;1.80;;;;;;;;;;4990921;28;20182;-71
2023/03/07 08:36:05;;;;;;;4.10;1.63;;;;;;;;;;4994469;28;20761;-71
2023/03/07 08:38:31;;;;;;;2.40;1.40;;;;;;;;;;4992598;28;20206;-71
2023/03/07 08:41:00;;;;;;;1.60;1.23;;;;;;;;;;4993031;28;20183;-71
2023/03/07 08:43:26;;;;;;;4.90;1.80;;;;;;;;;;4992539;28;20168;-71
2023/03/07 08:45:52;;;;;;;1.93;1.33;;;;;;;;;;4992875;28;20208;-71
2023/03/07 08:48:19;;;;;;;3.47;1.57;;;;;;;;;;4991287;28;20180;-71
2023/03/07 08:50:44;;;;;;;3.40;1.43;;;;;;;;;;4993112;28;20176;-71
2023/03/07 08:53:10;;;;;;;3.90;1.27;;;;;;;;;;4992372;28;20570;-71
2023/03/07 08:55:35;;;;;;;2.27;1.53;;;;;;;;;;4992690;28;20210;-71
2023/03/07 08:58:00;;;;;;;3.57;1.30;;;;;;;;;;4992697;28;20183;-71
2023/03/07 09:00:25;;;;;;;3.40;1.40;;;;;;;;;;4990383;28;20557;-71
2023/03/07 09:02:53;;;;;;;3.23;1.37;;;;;;;;;;4981293;28;20191;-71
2023/03/07 09:05:18;;;;;;;2.10;1.20;;;;;;;;;;4975259;28;20222;-71
2023/03/07 09:07:43;;;;;;;3.73;1.50;;;;;;;;;;4983756;28;20638;-71
2023/03/07 09:10:10;;;;;;;3.07;1.70;;;;;;;;;;4991807;28;20554;-71
2023/03/07 09:12:35;;;;;;;3.73;1.90;;;;;;;;;;4992159;28;20184;-71
2023/03/07 09:15:00;;;;;;;3.83;2.40;;;;;;;;;;4979898;28;20682;-71
2023/03/07 09:17:26;;;;;;;4.83;2.10;;;;;;;;;;4991638;28;20210;-71
2023/03/07 09:19:52;;;;;;;3.90;2.00;;;;;;;;;;4990782;28;20242;-71
2023/03/07 09:22:17;;;;;;;3.83;2.50;;;;;;;;;;4992039;28;20195;-71
2023/03/07 09:24:42;;;;;;;3.37;2.53;;;;;;;;;;4991840;28;20269;-71
2023/03/07 09:27:08;;;;;;;4.40;2.00;;;;;;;;;;4992284;28;20207;-71
2023/03/07 09:29:34;;;;;;;3.30;2.10;;;;;;;;;;4992127;28;20207;-71
2023/03/07 09:32:01;;;;;;;3.20;2.23;;;;;;;;;;4973879;28;20671;-71
2023/03/07 09:34:26;;;;;;;2.97;1.90;;;;;;;;;;4989767;28;20728;-71
2023/03/07 09:36:52;;;;;;;2.60;1.80;;;;;;;;;;4991750;28;20187;-71
2023/03/07 09:39:17;;;;;;;1.83;1.70;;;;;;;;;;4991818;28;20199;-71
2023/03/07 09:42:01;;;;;;;2.43;1.87;;;;;;;;;;4992218;28;20218;-71
2023/03/07 09:44:33;;;;;;;3.67;1.73;;;;;;;;;;4991983;28;20199;-71
2023/03/07 09:47:09;;;;;;;5.57;2.07;;;;;;;;;;4980675;28;20189;-71
2023/03/07 09:49:50;;;;;;;2.90;1.90;;;;;;;;;;4991576;28;20159;-71
2023/03/07 09:52:18;;;;;;;1.80;1.33;;;;;;;;;;4990122;28;20796;-71
2023/03/07 09:54:45;;;;;;;2.43;1.90;;;;;;;;;;4986799;28;20205;-71
2023/03/07 09:57:15;;;;;;;3.13;1.67;;;;;;;;;;4991874;28;20654;-71
2023/03/07 09:59:42;;;;;;;3.47;1.87;;;;;;;;;;4991326;28;20191;-71
2023/03/07 10:02:27;;;;;;;3.03;1.57;;;;;;;;;;4991758;28;20645;-71
2023/03/07 10:05:03;;;;;;;2.80;1.60;;;;;;;;;;4990104;28;20199;-71
2023/03/07 10:07:28;;;;;;;3.03;2.03;;;;;;;;;;4984930;28;20175;-71
2023/03/07 10:09:56;;;;;;;3.10;1.80;;;;;;;;;;4990752;28;20179;-71
2023/03/07 10:12:27;;;;;;;2.60;2.17;;;;;;;;;;4993587;28;20254;-71
2023/03/07 10:14:53;;;;;;;2.53;1.80;;;;;;;;;;4993987;28;20200;-71
2023/03/07 10:17:24;;;;;;;3.33;1.90;;;;;;;;;;4995405;28;20258;-72
2023/03/07 10:19:55;;;;;;;2.27;1.83;;;;;;;;;;4995360;28;20199;-71
2023/03/07 10:22:42;;;;;;;2.30;2.10;;;;;;;;;;4995487;28;20667;-71
2023/03/07 10:25:27;;;;;;;3.87;2.10;;;;;;;;;;4994801;28;20192;-71
2023/03/07 10:27:58;;;;;;;2.80;2.00;;;;;;;;;;4982576;28;20183;-71
2023/03/07 10:30:24;;;;;;;2.97;2.30;;;;;;;;;;4994482;28;20238;-71
2023/03/07 10:32:54;;;;;;;2.00;1.53;;;;;;;;;;4994739;28;20661;-71
2023/03/07 10:35:23;;;;;;;1.90;1.70;;;;;;;;;;4992409;28;20223;-72
2023/03/07 10:37:57;;;;;;;3.20;1.73;;;;;;;;;;4997328;28;20180;-70
2023/03/07 10:40:28;;;;;;;2.33;2.13;;;;;;;;;;4994322;28;20179;-70
2023/03/07 10:42:54;;;;;;;2.93;2.07;;;;;;;;;;4994809;28;20180;-71
2023/03/07 10:45:19;;;;;;;4.07;2.10;;;;;;;;;;4991142;28;20273;-72
2023/03/07 10:47:45;;;;;;;2.30;2.10;;;;;;;;;;4997481;28;20176;-70
2023/03/07 10:50:19;;;;;;;4.77;2.27;;;;;;;;;;4995002;28;20186;-72
2023/03/07 10:52:55;;;;;;;3.07;1.87;;;;;;;;;;4996167;28;20665;-71
2023/03/07 10:55:39;;;;;;;2.70;1.60;;;;;;;;;;4999155;28;20207;-71
2023/03/07 10:58:11;;;;;;;4.43;1.70;;;;;;;;;;4995866;28;20211;-71
2023/03/07 11:00:36;;;;;;;2.60;1.87;;;;;;;;;;4996557;28;20267;-71
2023/03/07 11:03:01;;;;;;;3.63;2.10;;;;;;;;;;4988883;28;20271;-71
2023/03/07 11:05:26;;;;;;;1.90;1.27;;;;;;;;;;4989130;28;20192;-71
2023/03/07 11:07:52;;;;;;;1.17;1.07;;;;;;;;;;4996137;28;20180;-71
2023/03/07 11:10:23;;;;;;;1.70;0.40;;;;;;;;;;4993966;28;20676;-70
2023/03/07 11:12:48;;;;;;;1.93;0.40;;;;;;;;;;4994343;28;20534;-70
2023/03/07 11:15:17;;;;;;;1.97;0.50;;;;;;;;;;4994760;28;20199;-70
2023/03/07 11:17:43;;;;;;;0.73;0.50;;;;;;;;;;4994762;28;20312;-70
2023/03/07 11:20:25;;;;;;;1.00;0.50;;;;;;;;;;4993427;28;20203;-70
2023/03/07 11:23:11;;;;;;;2.43;0.47;;;;;;;;;;4993894;28;20172;-70
2023/03/07 11:25:36;;;;;;;2.80;0.70;;;;;;;;;;4994764;28;20202;-70
2023/03/07 11:28:02;;;;;;;2.20;1.00;;;;;;;;;;4994635;28;20180;-70
2023/03/07 11:30:53;;;;;;;2.47;0.87;;;;;;;;;;4994744;28;20183;-70
2023/03/07 11:33:25;;;;;;;2.43;0.80;;;;;;;;;;4972448;28;20184;-70
2023/03/07 11:35:57;;;;;;;1.07;0.50;;;;;;;;;;5007014;22;20235;-76
2023/03/07 11:38:32;;;;;;;1.97;0.80;;;;;;;;;;5012811;28;20205;-75
2023/03/07 11:40:57;;;;;;;2.53;0.67;;;;;;;;;;5002702;28;20565;-75
2023/03/07 11:43:40;;;;;;;3.00;0.63;;;;;;;;;;5010633;28;20179;-75
2023/03/07 11:46:05;;;;;;;2.53;0.90;;;;;;;;;;5001596;28;20187;-75
2023/03/07 11:48:42;;;;;;;1.30;0.67;;;;;;;;;;5007672;28;20179;-75
2023/03/07 11:51:17;;;;;;;5.53;0.67;;;;;;;;;;4990950;28;20200;-75
2023/03/07 11:53:55;;;;;;;1.43;0.80;;;;;;;;;;4993566;28;20265;-76
2023/03/07 11:56:20;;;;;;;5.80;1.73;;;;;;;;;;5010706;28;20202;-74
2023/03/07 11:58:45;;;;;;;2.33;0.60;;;;;;;;;;5002260;28;20576;-75
2023/03/07 12:01:29;;;;;;;3.30;0.80;;;;;;;;;;5024383;28;20175;-75
2023/03/07 12:04:01;;;;;;;4.43;1.00;;;;;;;;;;5027208;28;20648;-75
2023/03/07 12:06:26;;;;;;;3.53;1.13;;;;;;;;;;5010357;28;20550;-76
2023/03/07 12:08:59;;;;;;;3.67;1.10;;;;;;;;;;4991841;28;20184;-76
2023/03/07 12:11:24;;;;;;;4.73;1.30;;;;;;;;;;4998339;28;20549;-75
2023/03/07 12:13:58;;;;;;;1.80;0.50;;;;;;;;;;5006688;28;20167;-75
2023/03/07 12:16:26;;;;;;;3.07;0.60;;;;;;;;;;5004029;28;20253;-75
2023/03/07 12:19:08;;;;;;;3.13;0.50;;;;;;;;;;5006692;28;20191;-76
2023/03/07 12:21:52;;;;;;;2.20;0.50;;;;;;;;;;5006382;28;20174;-76
2023/03/07 12:24:23;;;;;;;1.57;0.63;;;;;;;;;;5007383;28;20167;-76
2023/03/07 12:26:57;;;;;;;1.07;0.60;;;;;;;;;;5005563;28;20164;-76
2023/03/07 12:29:32;;;;;;;2.63;0.50;;;;;;;;;;5005894;28;20198;-76
2023/03/07 12:31:59;;;;;;;2.00;0.57;;;;;;;;;;5008177;28;20259;-76
2023/03/07 12:34:38;;;;;;;1.23;0.60;;;;;;;;;;4987690;28;20606;-76
2023/03/07 12:37:16;;;;;;;1.20;0.47;;;;;;;;;;4998004;28;20175;-75
2023/03/07 12:39:42;;;;;;;2.47;0.50;;;;;;;;;;5007170;28;20213;-75
2023/03/07 12:42:13;;;;;;;2.60;0.60;;;;;;;;;;5000599;28;20176;-76
2023/03/07 12:44:49;;;;;;;4.63;0.70;;;;;;;;;;5008356;28;20199;-76
2023/03/07 12:47:33;;;;;;;0.77;0.50;;;;;;;;;;4996095;28;20544;-76
2023/03/07 12:49:58;;;;;;;1.00;0.50;;;;;;;;;;5002066;28;20171;-76
2023/03/07 12:52:29;;;;;;;1.63;0.53;;;;;;;;;;5006441;28;20602;-76
2023/03/07 12:55:05;;;;;;;1.43;0.57;;;;;;;;;;5001767;28;20198;-76
2023/03/07 12:57:36;;;;;;;2.27;0.90;;;;;;;;;;4998979;28;20210;-75
2023/03/07 13:00:04;;;;;;;1.67;0.60;;;;;;;;;;5003539;28;20222;-75
2023/03/07 13:02:32;;;;;;;1.33;0.40;;;;;;;;;;4996611;28;20649;-76
2023/03/07 13:05:00;;;;;;;0.57;0.47;;;;;;;;;;5008123;28;20195;-76
2023/03/07 13:07:30;;;;;;;1.37;0.50;;;;;;;;;;5004843;28;20185;-76
2023/03/07 13:09:57;;;;;;;0.60;0.60;;;;;;;;;;5000032;28;20626;-76
2023/03/07 13:12:28;;;;;;;0.77;0.50;;;;;;;;;;5010794;28;20175;-76
2023/03/07 13:14:56;;;;;;;2.20;0.90;;;;;;;;;;4997890;28;20736;-76
2023/03/07 13:17:33;;;;;;;2.10;0.63;;;;;;;;;;4976318;28;20182;-76
2023/03/07 13:20:03;;;;;;;1.23;0.53;;;;;;;;;;4994927;28;20194;-76
2023/03/07 13:22:34;;;;;;;3.27;0.83;;;;;;;;;;5008718;28;20249;-76
2023/03/07 13:25:20;;;;;;;0.50;0.50;;;;;;;;;;5007587;28;20222;-76
2023/03/07 13:27:47;;;;;;;0.50;0.30;;;;;;;;;;5002567;28;20179;-76
2023/03/07 13:30:13;;;;;;;0.43;0.43;;;;;;;;;;5007851;28;20189;-76
2023/03/07 13:32:48;;;;;;;1.57;0.70;;;;;;;;;;5004115;28;20175;-76
2023/03/07 13:35:41;;;;;;;1.60;0.60;;;;;;;;;;4992226;28;20219;-76
2023/03/07 13:38:09;;;;;;;1.63;0.67;;;;;;;;;;4996345;28;20199;-75
2023/03/07 13:40:34;;;;;;;0.50;0.40;;;;;;;;;;5008155;28;20176;-76
2023/03/07 13:43:00;;;;;;;0.50;0.40;;;;;;;;;;5001093;28;20186;-76
2023/03/07 13:45:37;;;;;;;2.20;0.60;;;;;;;;;;5011367;28;20199;-76
2023/03/07 13:48:23;;;;;;;1.97;0.40;;;;;;;;;;5003622;28;20582;-76
2023/03/07 13:50:48;;;;;;;0.77;0.57;;;;;;;;;;4999421;28;20184;-76
2023/03/07 13:53:15;;;;;;;4.43;0.93;;;;;;;;;;5002242;28;20188;-75
2023/03/07 13:55:45;;;;;;;1.40;0.40;;;;;;;;;;4999086;28;20250;-76
2023/03/07 13:58:29;;;;;;;1.20;0.50;;;;;;;;;;5011139;28;20167;-76
2023/03/07 14:01:15;;;;;;;3.37;0.50;;;;;;;;;;5005816;28;20237;-76
2023/03/07 14:03:44;;;;;;;1.43;0.70;;;;;;;;;;5003865;28;20167;-76
2023/03/07 14:06:17;;;;;;;1.43;0.40;;;;;;;;;;5005575;28;20203;-76
2023/03/07 14:08:43;;;;;;;0.90;0.50;;;;;;;;;;5002748;28;20245;-76
2023/03/07 14:11:23;;;;;;;6.50;1.07;;;;;;;;;;5012156;28;20175;-75
2023/03/07 14:14:01;;;;;;;1.17;0.60;;;;;;;;;;5004714;28;20176;-76
2023/03/07 14:16:46;;;;;;;4.27;1.03;;;;;;;;;;5003430;28;20207;-75
2023/03/07 14:19:21;;;;;;;0.80;0.77;;;;;;;;;;4997335;28;20214;-76
2023/03/07 14:22:13;;;;;;;0.90;0.90;;;;;;;;;;5005682;28;20183;-76
2023/03/07 14:24:41;;;;;;;1.37;0.73;;;;;;;;;;5019354;28;20750;-76
2023/03/07 14:27:13;;;;;;;3.23;0.87;;;;;;;;;;4998962;28;20326;-76
2023/03/07 14:29:46;;;;;;;2.67;1.07;;;;;;;;;;5004414;28;20175;-76
2023/03/07 14:32:22;;;;;;;1.53;0.93;;;;;;;;;;5003834;28;20186;-76
2023/03/07 14:34:48;;;;;;;2.43;0.67;;;;;;;;;;5002530;28;20207;-76
2023/03/07 14:37:19;;;;;;;3.50;0.80;;;;;;;;;;5002570;28;20175;-77
2023/03/07 14:39:57;;;;;;;1.20;1.10;;;;;;;;;;5004056;28;20200;-75
2023/03/07 14:42:22;;;;;;;1.57;0.90;;;;;;;;;;5003669;28;20163;-76
2023/03/07 14:45:06;;;;;;;2.17;0.80;;;;;;;;;;5001793;28;20190;-75
2023/03/07 14:47:31;;;;;;;1.23;1.00;;;;;;;;;;5009168;28;20178;-77